Time;durP1;ratioP1;P1;durP2;ratioP2;P2;SDS_P1;SDS_P2;PMS_P1;PMS_P2;Temp;Humidity;BMP_temperature;BMP_pressure;BME280_temperature;BME280_humidity;BME280_pressure;Samples;Min_cycle;Max_cycle;Signal;HPM_P1;HPM_P2
2022/05/09 00:01:13;;;;;;;11.50;5.95;;;;;;;;;;5015757;28;20636;-44
2022/05/09 00:03:42;;;;;;;9.52;6.30;;;;;;;;;;5015262;28;20295;-44
2022/05/09 00:06:10;;;;;;;9.30;5.78;;;;;;;;;;5015963;28;20205;-43
2022/05/09 00:08:39;;;;;;;6.88;6.00;;;;;;;;;;5015711;28;20201;-44
2022/05/09 00:11:07;;;;;;;9.52;6.25;;;;;;;;;;5015830;28;20282;-44
2022/05/09 00:13:36;;;;;;;8.25;6.22;;;;;;;;;;5015677;28;20205;-43
2022/05/09 00:16:04;;;;;;;10.68;6.88;;;;;;;;;;5015623;28;20212;-43
2022/05/09 00:18:31;;;;;;;9.73;5.85;;;;;;;;;;5015484;28;20522;-45
2022/05/09 00:20:58;;;;;;;12.23;6.55;;;;;;;;;;5015555;28;20229;-44
2022/05/09 00:23:25;;;;;;;9.27;6.60;;;;;;;;;;5015299;28;20205;-44
2022/05/09 00:25:53;;;;;;;14.45;6.57;;;;;;;;;;5015304;28;20212;-44
2022/05/09 00:28:20;;;;;;;7.70;5.82;;;;;;;;;;5015322;28;20332;-45
2022/05/09 00:30:47;;;;;;;10.05;6.85;;;;;;;;;;5015158;28;20247;-44
2022/05/09 00:33:15;;;;;;;8.95;6.30;;;;;;;;;;5015274;28;20207;-43
2022/05/09 00:35:44;;;;;;;9.50;6.07;;;;;;;;;;5015169;28;20603;-43
2022/05/09 00:38:11;;;;;;;12.05;6.75;;;;;;;;;;5016207;28;20240;-43
2022/05/09 00:40:39;;;;;;;10.10;6.30;;;;;;;;;;5015074;28;20296;-44
2022/05/09 00:43:36;;;;;;;12.07;6.78;;;;;;;;;;5015424;28;20271;-44
2022/05/09 00:46:04;;;;;;;10.43;7.00;;;;;;;;;;5015257;28;20209;-44
2022/05/09 00:48:32;;;;;;;11.05;6.75;;;;;;;;;;5014979;28;20208;-45
2022/05/09 00:51:00;;;;;;;10.13;7.15;;;;;;;;;;5015305;28;20271;-44
2022/05/09 00:53:29;;;;;;;10.90;7.35;;;;;;;;;;5014957;28;20205;-44
2022/05/09 00:56:05;;;;;;;13.63;7.85;;;;;;;;;;5015016;28;20205;-43
2022/05/09 00:58:43;;;;;;;10.63;7.28;;;;;;;;;;5046172;28;20271;-46
2022/05/09 01:01:11;;;;;;;11.40;6.78;;;;;;;;;;5014875;28;20276;-45
2022/05/09 01:03:41;;;;;;;9.38;6.82;;;;;;;;;;5014883;28;20202;-43
2022/05/09 01:06:09;;;;;;;10.90;6.53;;;;;;;;;;5053247;28;20204;-44
2022/05/09 01:08:37;;;;;;;9.20;6.43;;;;;;;;;;5053013;28;20200;-45
2022/05/09 01:11:17;;;;;;;9.07;6.18;;;;;;;;;;5053052;28;20549;-43
2022/05/09 01:13:47;;;;;;;11.82;6.35;;;;;;;;;;5053500;28;20207;-44
2022/05/09 01:16:16;;;;;;;8.98;6.78;;;;;;;;;;5055819;28;20211;-43
2022/05/09 01:18:44;;;;;;;8.73;6.53;;;;;;;;;;5056687;28;20203;-45
2022/05/09 01:21:30;;;;;;;10.95;6.45;;;;;;;;;;5057070;28;20524;-45
2022/05/09 01:23:57;;;;;;;8.68;6.57;;;;;;;;;;5064941;28;20207;-44
2022/05/09 01:26:25;;;;;;;10.65;6.85;;;;;;;;;;5077315;28;20665;-45
2022/05/09 01:28:53;;;;;;;12.38;7.07;;;;;;;;;;5076694;28;20199;-45
2022/05/09 01:31:21;;;;;;;11.70;7.25;;;;;;;;;;5060116;28;20258;-45
2022/05/09 01:33:50;;;;;;;9.80;7.18;;;;;;;;;;5076700;28;20210;-45
2022/05/09 01:36:36;;;;;;;8.70;6.47;;;;;;;;;;5054722;28;20640;-44
2022/05/09 01:39:08;;;;;;;8.15;6.80;;;;;;;;;;5037899;28;20270;-45
2022/05/09 01:41:38;;;;;;;8.93;7.68;;;;;;;;;;5038291;28;20200;-43
2022/05/09 01:44:07;;;;;;;9.70;7.47;;;;;;;;;;5038210;28;20538;-44
2022/05/09 01:46:34;;;;;;;9.48;6.50;;;;;;;;;;5038336;28;20200;-43
2022/05/09 01:51:48;;;;;;;10.10;7.65;;;;;;;;;;5037962;28;20663;-45
2022/05/09 01:54:16;;;;;;;9.95;7.93;;;;;;;;;;5038270;28;20583;-43
2022/05/09 01:56:43;;;;;;;10.88;7.40;;;;;;;;;;5037895;28;20208;-45
2022/05/09 01:59:12;;;;;;;11.68;7.55;;;;;;;;;;5038318;28;20584;-44
2022/05/09 02:01:52;;;;;;;9.02;7.47;;;;;;;;;;5038516;28;20204;-44
2022/05/09 02:04:23;;;;;;;10.82;7.75;;;;;;;;;;5038248;28;20228;-44
2022/05/09 02:06:51;;;;;;;10.98;8.30;;;;;;;;;;5037921;28;20235;-43
2022/05/09 02:09:19;;;;;;;12.68;7.35;;;;;;;;;;5037462;28;20201;-45
2022/05/09 02:11:46;;;;;;;11.88;7.90;;;;;;;;;;5037428;28;20228;-45
2022/05/09 02:14:13;;;;;;;12.68;7.25;;;;;;;;;;5037445;28;20212;-43
2022/05/09 02:16:40;;;;;;;10.35;7.28;;;;;;;;;;5037273;28;20224;-44
2022/05/09 02:19:08;;;;;;;12.73;7.57;;;;;;;;;;5037415;28;20204;-44
2022/05/09 02:21:35;;;;;;;11.43;7.20;;;;;;;;;;5037202;28;20201;-43
2022/05/09 02:24:03;;;;;;;11.38;7.47;;;;;;;;;;5036972;28;20205;-44
2022/05/09 02:26:31;;;;;;;8.98;6.90;;;;;;;;;;5036324;28;20201;-44
2022/05/09 02:28:58;;;;;;;9.38;7.18;;;;;;;;;;5036877;28;20201;-44
2022/05/09 02:31:26;;;;;;;11.40;7.03;;;;;;;;;;5036998;28;20304;-43
2022/05/09 02:33:53;;;;;;;9.88;7.18;;;;;;;;;;5036809;28;20212;-44
2022/05/09 02:36:20;;;;;;;10.35;6.95;;;;;;;;;;5036779;28;20215;-43
2022/05/09 02:38:47;;;;;;;11.40;7.15;;;;;;;;;;5037047;28;20209;-43
2022/05/09 02:41:15;;;;;;;10.50;6.80;;;;;;;;;;5036739;28;20205;-43
2022/05/09 02:43:42;;;;;;;10.77;7.32;;;;;;;;;;5036642;28;20196;-44
2022/05/09 02:46:10;;;;;;;10.23;7.93;;;;;;;;;;5036743;28;20288;-43
2022/05/09 02:48:38;;;;;;;11.18;7.72;;;;;;;;;;5036899;28;20197;-45
2022/05/09 02:51:06;;;;;;;9.30;7.32;;;;;;;;;;5036388;28;20613;-43
2022/05/09 02:53:34;;;;;;;12.15;7.40;;;;;;;;;;5036429;28;20695;-44
2022/05/09 02:56:03;;;;;;;12.98;7.68;;;;;;;;;;5036572;28;20583;-44
2022/05/09 02:58:30;;;;;;;9.57;6.75;;;;;;;;;;5036488;28;20262;-43
2022/05/09 03:00:57;;;;;;;9.57;7.60;;;;;;;;;;5036451;28;20205;-44
2022/05/09 03:06:11;;;;;;;13.20;6.43;;;;;;;;;;5036525;28;20304;-43
2022/05/09 03:08:39;;;;;;;8.73;7.25;;;;;;;;;;5036379;28;20208;-45
2022/05/09 03:11:06;;;;;;;11.70;7.00;;;;;;;;;;5036211;28;20207;-44
2022/05/09 03:13:34;;;;;;;7.53;6.20;;;;;;;;;;5036044;28;20534;-43
2022/05/09 03:16:02;;;;;;;10.35;6.35;;;;;;;;;;5036246;28;20216;-44
2022/05/09 03:18:29;;;;;;;11.30;6.35;;;;;;;;;;5036276;28;20270;-44
2022/05/09 03:20:56;;;;;;;9.07;6.22;;;;;;;;;;5036575;28;20204;-43
2022/05/09 03:23:24;;;;;;;8.70;5.80;;;;;;;;;;5036421;28;20654;-43
2022/05/09 03:25:51;;;;;;;8.52;5.60;;;;;;;;;;5036049;28;20225;-44
2022/05/09 03:28:21;;;;;;;7.38;6.00;;;;;;;;;;5036186;28;20255;-45
2022/05/09 03:30:56;;;;;;;10.60;5.43;;;;;;;;;;5028393;28;20205;-43
2022/05/09 03:33:26;;;;;;;8.18;5.35;;;;;;;;;;5016302;28;20229;-43
2022/05/09 03:35:57;;;;;;;8.07;5.28;;;;;;;;;;5016293;28;20637;-43
2022/05/09 03:38:25;;;;;;;10.57;4.55;;;;;;;;;;5016096;28;20592;-43
2022/05/09 03:40:52;;;;;;;10.63;5.45;;;;;;;;;;5016163;28;20201;-45
2022/05/09 03:43:20;;;;;;;6.32;4.40;;;;;;;;;;5015061;28;20236;-44
2022/05/09 03:45:48;;;;;;;7.07;4.45;;;;;;;;;;5022186;28;20589;-44
2022/05/09 03:48:15;;;;;;;8.40;5.18;;;;;;;;;;5019098;28;20601;-44
2022/05/09 03:50:43;;;;;;;8.00;4.38;;;;;;;;;;5028388;28;20232;-44
2022/05/09 03:53:10;;;;;;;5.28;4.22;;;;;;;;;;5035551;28;20236;-45
2022/05/09 03:55:37;;;;;;;12.38;4.25;;;;;;;;;;5029362;28;20233;-44
2022/05/09 03:58:04;;;;;;;11.50;4.30;;;;;;;;;;5046304;28;20216;-44
2022/05/09 04:00:35;;;;;;;6.10;3.53;;;;;;;;;;5046154;28;20239;-44
2022/05/09 04:03:03;;;;;;;8.18;3.70;;;;;;;;;;5034294;28;20247;-45
2022/05/09 04:05:31;;;;;;;7.07;3.72;;;;;;;;;;5034571;28;20224;-43
2022/05/09 04:08:00;;;;;;;5.38;3.15;;;;;;;;;;5045359;28;20630;-44
2022/05/09 04:10:30;;;;;;;6.10;3.30;;;;;;;;;;5041300;28;20232;-44
2022/05/09 04:12:59;;;;;;;5.40;2.95;;;;;;;;;;5054463;28;20250;-43
2022/05/09 04:18:17;;;;;;;4.00;2.60;;;;;;;;;;5054401;28;20216;-45
2022/05/09 04:20:46;;;;;;;3.15;2.72;;;;;;;;;;5053994;28;20263;-44
2022/05/09 04:23:14;;;;;;;5.53;2.47;;;;;;;;;;5054227;28;20244;-45
2022/05/09 04:25:42;;;;;;;6.72;2.85;;;;;;;;;;5053604;28;20277;-44
2022/05/09 04:28:14;;;;;;;4.97;2.50;;;;;;;;;;5054239;28;20279;-45
2022/05/09 04:30:43;;;;;;;5.15;2.42;;;;;;;;;;5053211;28;20223;-44
2022/05/09 04:33:10;;;;;;;4.15;2.10;;;;;;;;;;5054079;28;20239;-41
2022/05/09 04:35:39;;;;;;;2.97;2.00;;;;;;;;;;5054452;28;20235;-41
2022/05/09 04:38:07;;;;;;;3.47;2.20;;;;;;;;;;5054172;28;20224;-41
2022/05/09 04:40:36;;;;;;;5.03;1.95;;;;;;;;;;5045979;28;20255;-41
2022/05/09 04:43:03;;;;;;;6.45;2.00;;;;;;;;;;5031778;28;20679;-41
2022/05/09 04:45:32;;;;;;;3.60;2.08;;;;;;;;;;5033814;28;20244;-41
2022/05/09 04:47:59;;;;;;;3.35;1.85;;;;;;;;;;5033695;28;20225;-41
2022/05/09 04:50:27;;;;;;;8.23;2.05;;;;;;;;;;5033645;28;20240;-42
2022/05/09 04:52:55;;;;;;;6.95;2.40;;;;;;;;;;5033434;28;20251;-42
2022/05/09 04:55:25;;;;;;;3.85;2.10;;;;;;;;;;5032429;28;20236;-42
2022/05/09 04:57:52;;;;;;;4.00;1.98;;;;;;;;;;5033801;28;20232;-42
2022/05/09 05:00:24;;;;;;;4.25;1.85;;;;;;;;;;5033711;28;20224;-41
2022/05/09 05:02:53;;;;;;;4.40;2.10;;;;;;;;;;5033759;28;20228;-42
2022/05/09 05:05:23;;;;;;;5.32;2.00;;;;;;;;;;5034014;28;20224;-42
2022/05/09 05:07:51;;;;;;;9.52;2.05;;;;;;;;;;5033361;28;20278;-42
2022/05/09 05:10:24;;;;;;;3.58;1.90;;;;;;;;;;5033661;28;20228;-42
2022/05/09 05:12:51;;;;;;;7.75;1.80;;;;;;;;;;5033294;28;20683;-42
2022/05/09 05:15:18;;;;;;;3.58;2.08;;;;;;;;;;5033633;28;20580;-42
2022/05/09 05:17:46;;;;;;;5.50;1.48;;;;;;;;;;5033772;28;20228;-43
2022/05/09 05:20:15;;;;;;;7.97;1.60;;;;;;;;;;5033686;28;20221;-42
2022/05/09 05:22:48;;;;;;;3.55;1.70;;;;;;;;;;5033467;28;20239;-42
2022/05/09 05:25:24;;;;;;;4.07;1.80;;;;;;;;;;5033236;28;20286;-42
2022/05/09 05:27:51;;;;;;;1.90;1.60;;;;;;;;;;5033517;28;20228;-42
2022/05/09 05:30:19;;;;;;;4.55;1.70;;;;;;;;;;5034205;28;20284;-42
2022/05/09 05:32:47;;;;;;;4.82;1.60;;;;;;;;;;5034138;28;20675;-43
2022/05/09 05:35:17;;;;;;;4.22;1.85;;;;;;;;;;5033856;28;20216;-43
2022/05/09 05:37:45;;;;;;;4.28;1.50;;;;;;;;;;5034188;28;20193;-42
2022/05/09 05:40:13;;;;;;;2.20;1.27;;;;;;;;;;5034273;28;20205;-42
2022/05/09 05:42:43;;;;;;;1.95;1.23;;;;;;;;;;5034716;28;20209;-42
2022/05/09 05:45:12;;;;;;;3.17;1.70;;;;;;;;;;5034416;28;20556;-43
2022/05/09 05:47:40;;;;;;;4.40;1.60;;;;;;;;;;5034899;28;20201;-42
2022/05/09 05:50:10;;;;;;;2.58;1.50;;;;;;;;;;5034341;28;20263;-42
2022/05/09 05:52:38;;;;;;;1.95;1.40;;;;;;;;;;5035006;28;20235;-43
2022/05/09 05:55:06;;;;;;;2.85;1.40;;;;;;;;;;5034020;28;20651;-43
2022/05/09 05:57:34;;;;;;;3.13;1.23;;;;;;;;;;5034300;28;20209;-42
2022/05/09 06:00:08;;;;;;;4.15;1.38;;;;;;;;;;5034366;28;20208;-43
2022/05/09 06:02:45;;;;;;;6.20;1.13;;;;;;;;;;5035779;28;20612;-44
2022/05/09 06:05:14;;;;;;;5.60;1.60;;;;;;;;;;5037527;28;20211;-43
2022/05/09 06:07:42;;;;;;;4.05;1.60;;;;;;;;;;5038296;28;20219;-43
2022/05/09 06:10:10;;;;;;;2.88;1.23;;;;;;;;;;5037596;28;20212;-43
2022/05/09 06:12:38;;;;;;;5.57;1.38;;;;;;;;;;5037534;28;20246;-43
2022/05/09 06:17:52;;;;;;;3.75;1.23;;;;;;;;;;5037861;28;20209;-43
2022/05/09 06:20:20;;;;;;;1.92;1.33;;;;;;;;;;5037356;28;20668;-45
2022/05/09 06:22:48;;;;;;;2.10;1.10;;;;;;;;;;5037332;28;20631;-43
2022/05/09 06:25:18;;;;;;;2.50;1.20;;;;;;;;;;5037378;28;20216;-43
2022/05/09 06:27:45;;;;;;;3.95;1.00;;;;;;;;;;5037204;28;20246;-43
2022/05/09 06:30:14;;;;;;;4.93;1.20;;;;;;;;;;5037068;28;20681;-44
2022/05/09 06:32:42;;;;;;;7.63;1.30;;;;;;;;;;5037806;28;20224;-43
2022/05/09 06:35:15;;;;;;;2.70;1.27;;;;;;;;;;5037143;28;20566;-42
2022/05/09 06:37:42;;;;;;;3.88;1.23;;;;;;;;;;5037189;28;20203;-43
2022/05/09 06:40:11;;;;;;;2.13;1.00;;;;;;;;;;5036894;28;20209;-43
2022/05/09 06:42:38;;;;;;;4.65;1.13;;;;;;;;;;5036867;28;20636;-43
2022/05/09 06:45:08;;;;;;;3.70;1.05;;;;;;;;;;5036858;28;20216;-43
2022/05/09 06:47:43;;;;;;;2.30;1.00;;;;;;;;;;5036997;28;20255;-43
2022/05/09 06:50:11;;;;;;;3.90;1.30;;;;;;;;;;5036962;28;20243;-43
2022/05/09 06:52:38;;;;;;;5.28;1.23;;;;;;;;;;5037082;28;20689;-43
2022/05/09 06:55:05;;;;;;;1.63;0.88;;;;;;;;;;5036689;28;20205;-43
2022/05/09 06:57:37;;;;;;;3.75;1.20;;;;;;;;;;5036638;28;20209;-43
2022/05/09 07:00:07;;;;;;;5.80;1.20;;;;;;;;;;5037031;28;20197;-43
2022/05/09 07:02:34;;;;;;;4.20;1.13;;;;;;;;;;5036730;28;20223;-43
2022/05/09 07:05:07;;;;;;;4.15;1.20;;;;;;;;;;5036431;28;20231;-43
2022/05/09 07:07:38;;;;;;;2.45;0.80;;;;;;;;;;5036971;28;20510;-43
2022/05/09 07:10:06;;;;;;;3.75;1.17;;;;;;;;;;5036657;28;20205;-44
2022/05/09 07:12:46;;;;;;;6.18;1.13;;;;;;;;;;5036037;28;20659;-43
2022/05/09 07:15:17;;;;;;;3.40;1.20;;;;;;;;;;5036622;28;20205;-43
2022/05/09 07:17:45;;;;;;;3.55;1.00;;;;;;;;;;5036529;28;20204;-42
2022/05/09 07:20:13;;;;;;;3.13;1.10;;;;;;;;;;5036700;28;20235;-45
2022/05/09 07:22:40;;;;;;;3.97;0.93;;;;;;;;;;5036153;28;20628;-43
2022/05/09 07:25:09;;;;;;;3.17;0.90;;;;;;;;;;5036175;28;20201;-42
2022/05/09 07:27:36;;;;;;;2.17;0.90;;;;;;;;;;5036316;28;20189;-43
2022/05/09 07:30:06;;;;;;;6.50;1.20;;;;;;;;;;5036155;28;20231;-46
2022/05/09 07:32:34;;;;;;;1.65;1.23;;;;;;;;;;5035875;28;20671;-43
2022/05/09 07:35:01;;;;;;;22.50;2.25;;;;;;;;;;5036064;28;20212;-42
2022/05/09 07:37:28;;;;;;;4.05;1.17;;;;;;;;;;5036155;28;20201;-43
2022/05/09 07:39:55;;;;;;;4.72;0.98;;;;;;;;;;5035793;28;20654;-43
2022/05/09 07:42:22;;;;;;;3.97;1.23;;;;;;;;;;5035727;28;20211;-42
2022/05/09 07:44:52;;;;;;;2.25;0.90;;;;;;;;;;5035757;28;20201;-43
2022/05/09 07:47:19;;;;;;;5.78;1.23;;;;;;;;;;5035703;28;20531;-42
2022/05/09 07:49:46;;;;;;;6.10;1.45;;;;;;;;;;5035631;28;20228;-43
2022/05/09 07:52:13;;;;;;;3.20;1.40;;;;;;;;;;5035829;28;20299;-43
2022/05/09 07:54:41;;;;;;;2.85;1.08;;;;;;;;;;5035615;28;20201;-43
2022/05/09 07:57:08;;;;;;;5.00;1.00;;;;;;;;;;5035703;28;20503;-44
2022/05/09 07:59:35;;;;;;;4.03;1.05;;;;;;;;;;5035681;28;20282;-42
2022/05/09 08:02:02;;;;;;;3.50;0.90;;;;;;;;;;5035419;28;20219;-43
2022/05/09 08:04:30;;;;;;;3.08;1.10;;;;;;;;;;5035424;28;20208;-43
2022/05/09 08:06:57;;;;;;;3.33;1.00;;;;;;;;;;5035570;28;20219;-43
2022/05/09 08:09:24;;;;;;;3.38;1.20;;;;;;;;;;5035266;28;20204;-43
2022/05/09 08:11:51;;;;;;;3.95;1.08;;;;;;;;;;5035189;28;20216;-43
2022/05/09 08:14:18;;;;;;;3.45;1.40;;;;;;;;;;5035242;28;20687;-43
2022/05/09 08:16:46;;;;;;;3.70;0.90;;;;;;;;;;5035574;28;20205;-43
2022/05/09 08:19:14;;;;;;;3.05;1.10;;;;;;;;;;5035273;28;20228;-43
2022/05/09 08:21:42;;;;;;;4.35;1.30;;;;;;;;;;5035224;28;20220;-43
2022/05/09 08:24:09;;;;;;;5.88;1.08;;;;;;;;;;5034999;28;20288;-45
2022/05/09 08:26:36;;;;;;;5.07;0.95;;;;;;;;;;5034639;28;20204;-43
2022/05/09 08:29:04;;;;;;;5.90;1.00;;;;;;;;;;5035211;28;20318;-44
2022/05/09 08:31:31;;;;;;;3.22;0.90;;;;;;;;;;5035178;28;20220;-43
2022/05/09 08:33:59;;;;;;;2.33;1.00;;;;;;;;;;5035062;28;20229;-43
2022/05/09 08:39:13;;;;;;;3.72;1.20;;;;;;;;;;5035031;28;20219;-43
2022/05/09 08:41:59;;;;;;;3.30;1.17;;;;;;;;;;5034817;28;20209;-43
2022/05/09 08:44:51;;;;;;;5.30;1.25;;;;;;;;;;5035012;28;20302;-43
2022/05/09 08:47:25;;;;;;;3.17;1.23;;;;;;;;;;5034686;28;20200;-43
2022/05/09 08:50:15;;;;;;;5.28;0.98;;;;;;;;;;5035162;28;20247;-43
2022/05/09 08:53:08;;;;;;;3.28;1.17;;;;;;;;;;5034592;28;20212;-43
2022/05/09 08:55:38;;;;;;;3.83;1.25;;;;;;;;;;5034615;28;20189;-43
2022/05/09 08:58:40;;;;;;;3.50;1.13;;;;;;;;;;5034000;28;20208;-44
2022/05/09 09:01:19;;;;;;;2.70;1.15;;;;;;;;;;5034855;28;20208;-43
2022/05/09 09:03:56;;;;;;;5.95;1.00;;;;;;;;;;5034805;28;20544;-43
2022/05/09 09:06:48;;;;;;;2.88;1.20;;;;;;;;;;5018710;28;20616;-43
2022/05/09 09:09:33;;;;;;;4.50;1.23;;;;;;;;;;5034461;28;20199;-44
2022/05/09 09:12:16;;;;;;;1.80;1.00;;;;;;;;;;5034539;28;20200;-43
2022/05/09 09:15:00;;;;;;;2.30;1.10;;;;;;;;;;5034871;28;20239;-43
2022/05/09 09:17:59;;;;;;;2.90;1.38;;;;;;;;;;5034739;28;20581;-43
2022/05/09 09:20:37;;;;;;;3.63;1.20;;;;;;;;;;5034491;28;20259;-43
2022/05/09 09:23:19;;;;;;;3.47;1.00;;;;;;;;;;5017343;28;20196;-43
2022/05/09 09:26:03;;;;;;;6.25;1.23;;;;;;;;;;5034361;28;20193;-43
2022/05/09 09:28:49;;;;;;;4.22;1.23;;;;;;;;;;5033929;28;20185;-43
2022/05/09 09:31:22;;;;;;;2.95;1.17;;;;;;;;;;5033809;28;20200;-43
2022/05/09 09:33:56;;;;;;;6.20;1.40;;;;;;;;;;5033555;28;20657;-43
2022/05/09 09:36:33;;;;;;;3.35;0.95;;;;;;;;;;5036297;28;20208;-43
2022/05/09 09:39:13;;;;;;;3.22;0.95;;;;;;;;;;5038238;28;20200;-43
2022/05/09 09:41:41;;;;;;;6.93;0.80;;;;;;;;;;5038566;28;20212;-42
2022/05/09 09:44:08;;;;;;;2.08;0.95;;;;;;;;;;5038405;28;20589;-43
2022/05/09 09:47:01;;;;;;;1.48;0.90;;;;;;;;;;5038532;28;20263;-44
2022/05/09 09:49:29;;;;;;;2.08;1.00;;;;;;;;;;5038029;28;20201;-43
2022/05/09 09:51:57;;;;;;;4.40;1.10;;;;;;;;;;5037829;28;20189;-42
2022/05/09 09:54:26;;;;;;;3.88;1.13;;;;;;;;;;5038203;28;20612;-43
2022/05/09 09:57:19;;;;;;;4.35;1.10;;;;;;;;;;5037759;28;20219;-43
2022/05/09 09:59:46;;;;;;;2.70;0.90;;;;;;;;;;5037910;28;20582;-43
2022/05/09 10:02:16;;;;;;;4.45;0.90;;;;;;;;;;5037670;28;20208;-44
2022/05/09 10:04:45;;;;;;;1.85;0.85;;;;;;;;;;5037682;28;20291;-43
2022/05/09 10:07:16;;;;;;;3.88;0.80;;;;;;;;;;5037804;28;20263;-43
2022/05/09 10:10:15;;;;;;;2.30;0.88;;;;;;;;;;5036830;28;20220;-43
2022/05/09 10:13:16;;;;;;;5.07;1.27;;;;;;;;;;5037432;28;20231;-43
2022/05/09 10:15:45;;;;;;;3.42;1.02;;;;;;;;;;5037811;28;20208;-43
2022/05/09 10:18:19;;;;;;;9.02;0.98;;;;;;;;;;5036848;28;20201;-44
2022/05/09 10:24:47;;;;;;;2.20;1.10;;;;;;;;;;5037481;28;20200;-43
2022/05/09 10:26:58;;;;;;;1.77;1.00;;;;;;;;;;5036777;28;20208;-43
2022/05/09 10:29:28;;;;;;;2.45;1.00;;;;;;;;;;5037056;28;20559;-43
2022/05/09 10:31:57;;;;;;;3.50;1.13;;;;;;;;;;5036812;28;20287;-43
2022/05/09 10:34:39;;;;;;;2.42;0.80;;;;;;;;;;5036405;28;20224;-43
2022/05/09 10:37:20;;;;;;;2.00;1.02;;;;;;;;;;5036226;28;20612;-43
2022/05/09 10:39:53;;;;;;;3.45;0.88;;;;;;;;;;5036463;28;20200;-43
2022/05/09 10:42:27;;;;;;;6.45;1.23;;;;;;;;;;5037055;28;20573;-43
2022/05/09 10:45:06;;;;;;;3.38;1.13;;;;;;;;;;5036982;28;20208;-43
2022/05/09 10:47:37;;;;;;;3.33;1.00;;;;;;;;;;5036786;28;20598;-44
2022/05/09 10:50:12;;;;;;;3.00;1.08;;;;;;;;;;5037072;28;20560;-43
2022/05/09 10:53:20;;;;;;;4.25;0.73;;;;;;;;;;5036915;28;20578;-43
2022/05/09 10:55:57;;;;;;;2.28;1.30;;;;;;;;;;5035975;28;20227;-43
2022/05/09 10:58:36;;;;;;;1.85;0.90;;;;;;;;;;5036672;28;20203;-43
2022/05/09 11:01:12;;;;;;;10.63;1.15;;;;;;;;;;5037172;28;20189;-43
2022/05/09 11:03:41;;;;;;;2.58;1.02;;;;;;;;;;5035314;28;20208;-43
2022/05/09 11:06:13;;;;;;;3.78;1.30;;;;;;;;;;5035201;28;20219;-43
2022/05/09 11:08:58;;;;;;;4.15;1.13;;;;;;;;;;5019061;28;20201;-43
2022/05/09 11:11:41;;;;;;;4.45;1.25;;;;;;;;;;5034962;28;20736;-43
2022/05/09 11:14:34;;;;;;;2.92;1.10;;;;;;;;;;5034708;28;20231;-43
2022/05/09 11:17:19;;;;;;;3.42;0.95;;;;;;;;;;5035192;28;20219;-43
2022/05/09 11:20:08;;;;;;;7.40;1.30;;;;;;;;;;5032430;28;20531;-46
2022/05/09 11:22:49;;;;;;;5.22;1.00;;;;;;;;;;5018333;28;20189;-45
2022/05/09 11:25:55;;;;;;;3.22;0.90;;;;;;;;;;5018026;28;20207;-46
2022/05/09 11:28:41;;;;;;;2.83;1.02;;;;;;;;;;5005870;28;20219;-45
2022/05/09 11:31:50;;;;;;;3.25;1.25;;;;;;;;;;5034073;28;20295;-47
2022/05/09 11:34:59;;;;;;;3.28;0.80;;;;;;;;;;5034644;28;20239;-47
2022/05/09 11:37:54;;;;;;;2.25;1.02;;;;;;;;;;5036094;28;20643;-46
2022/05/09 11:44:32;;;;;;;4.00;1.00;;;;;;;;;;5010970;28;20641;-43
2022/05/09 11:47:38;;;;;;;3.35;1.10;;;;;;;;;;5016165;28;20571;-43
2022/05/09 11:50:40;;;;;;;2.22;0.98;;;;;;;;;;4997454;28;20283;-43
2022/05/09 11:53:08;;;;;;;2.63;1.08;;;;;;;;;;5015860;28;20628;-43
2022/05/09 11:55:36;;;;;;;4.65;1.00;;;;;;;;;;5015985;28;20238;-43
2022/05/09 11:58:04;;;;;;;2.58;1.23;;;;;;;;;;5015752;28;20572;-43
2022/05/09 12:00:35;;;;;;;4.80;1.17;;;;;;;;;;5014069;28;20648;-43
2022/05/09 12:03:09;;;;;;;2.55;0.90;;;;;;;;;;5015866;28;20197;-43
2022/05/09 12:05:38;;;;;;;1.77;0.98;;;;;;;;;;5015964;28;20209;-43
2022/05/09 12:08:08;;;;;;;2.00;1.02;;;;;;;;;;5015841;28;20209;-43
2022/05/09 12:10:38;;;;;;;3.08;1.00;;;;;;;;;;5016065;28;20209;-44
2022/05/09 12:13:24;;;;;;;4.93;1.40;;;;;;;;;;5015101;28;20582;-43
2022/05/09 12:15:56;;;;;;;3.42;1.30;;;;;;;;;;5015473;28;20197;-43
2022/05/09 12:18:25;;;;;;;4.35;1.05;;;;;;;;;;5031906;28;20194;-45
2022/05/09 12:21:01;;;;;;;2.90;1.00;;;;;;;;;;5015716;28;20205;-43
2022/05/09 12:23:47;;;;;;;2.50;1.08;;;;;;;;;;5015793;28;20204;-43
2022/05/09 12:26:34;;;;;;;4.43;1.10;;;;;;;;;;5015250;28;20311;-43
2022/05/09 12:29:12;;;;;;;2.47;1.00;;;;;;;;;;5015512;28;20633;-44
2022/05/09 12:31:59;;;;;;;3.47;1.17;;;;;;;;;;5015550;28;20189;-43
2022/05/09 12:34:47;;;;;;;2.88;1.00;;;;;;;;;;5015322;28;20225;-43
2022/05/09 12:37:18;;;;;;;1.52;0.82;;;;;;;;;;5015480;28;20209;-44
2022/05/09 12:39:54;;;;;;;3.13;0.90;;;;;;;;;;5015091;28;20277;-43
2022/05/09 12:42:27;;;;;;;3.65;0.90;;;;;;;;;;5015232;28;20205;-43
2022/05/09 12:44:56;;;;;;;9.02;1.10;;;;;;;;;;5014990;28;20209;-44
2022/05/09 12:47:26;;;;;;;4.20;1.17;;;;;;;;;;5015267;28;20220;-43
2022/05/09 12:50:00;;;;;;;1.85;0.88;;;;;;;;;;5014808;28;20233;-43
2022/05/09 12:52:32;;;;;;;1.90;0.90;;;;;;;;;;5025777;28;20216;-46
2022/05/09 12:57:56;;;;;;;3.30;0.82;;;;;;;;;;5041766;28;20240;-46
2022/05/09 13:00:29;;;;;;;5.68;1.05;;;;;;;;;;5033581;28;20225;-46
2022/05/09 13:03:17;;;;;;;3.03;1.00;;;;;;;;;;5033552;28;20217;-46
2022/05/09 13:05:45;;;;;;;1.83;0.80;;;;;;;;;;5032621;28;20239;-47
2022/05/09 13:08:14;;;;;;;2.47;1.00;;;;;;;;;;5033850;28;20224;-46
2022/05/09 13:10:50;;;;;;;2.58;0.80;;;;;;;;;;5034346;28;20231;-46
2022/05/09 13:13:29;;;;;;;5.15;1.00;;;;;;;;;;5037778;28;20232;-46
2022/05/09 13:15:56;;;;;;;2.45;0.90;;;;;;;;;;5037671;28;20663;-46
2022/05/09 13:18:26;;;;;;;1.73;0.75;;;;;;;;;;5037752;28;20294;-46
2022/05/09 13:20:58;;;;;;;1.80;0.80;;;;;;;;;;5036984;28;20651;-46
2022/05/09 13:23:37;;;;;;;2.08;0.82;;;;;;;;;;5033939;28;20221;-46
2022/05/09 13:26:07;;;;;;;3.55;1.05;;;;;;;;;;5037872;28;20247;-47
2022/05/09 13:28:47;;;;;;;2.35;1.02;;;;;;;;;;5018654;28;20303;-46
2022/05/09 13:31:55;;;;;;;2.17;0.85;;;;;;;;;;5017926;28;20355;-46
2022/05/09 13:34:25;;;;;;;3.78;1.25;;;;;;;;;;4996020;28;20245;-46
2022/05/09 13:36:52;;;;;;;3.03;0.93;;;;;;;;;;5003268;28;20349;-47
2022/05/09 13:39:26;;;;;;;4.03;0.90;;;;;;;;;;4999012;28;20319;-46
2022/05/09 13:41:56;;;;;;;5.40;0.90;;;;;;;;;;5012965;28;20228;-47
2022/05/09 13:44:23;;;;;;;3.95;1.20;;;;;;;;;;5013885;28;20248;-46
2022/05/09 13:46:52;;;;;;;1.85;0.80;;;;;;;;;;5014459;28;20225;-46
2022/05/09 13:49:20;;;;;;;2.95;1.10;;;;;;;;;;4998180;28;20217;-45
2022/05/09 13:51:53;;;;;;;1.75;0.85;;;;;;;;;;4998262;28;20287;-45
2022/05/09 13:54:26;;;;;;;7.40;1.42;;;;;;;;;;4998038;28;20349;-44
2022/05/09 13:57:29;;;;;;;3.53;1.30;;;;;;;;;;4999850;28;20672;-46
2022/05/09 14:00:07;;;;;;;2.00;1.05;;;;;;;;;;4975126;28;20230;-46
2022/05/09 14:02:42;;;;;;;4.20;1.00;;;;;;;;;;4960466;28;20297;-46
2022/05/09 14:05:18;;;;;;;3.22;1.10;;;;;;;;;;4985544;28;20222;-48
2022/05/09 14:07:47;;;;;;;3.50;0.93;;;;;;;;;;4995718;28;20238;-46
2022/05/09 14:10:30;;;;;;;3.38;1.10;;;;;;;;;;4995526;28;20237;-46
2022/05/09 14:12:57;;;;;;;4.53;1.15;;;;;;;;;;4992100;28;20309;-47
2022/05/09 14:15:30;;;;;;;2.92;1.27;;;;;;;;;;4979424;28;20234;-46
2022/05/09 14:18:12;;;;;;;5.15;1.00;;;;;;;;;;4979975;28;20614;-46
2022/05/09 14:20:42;;;;;;;5.18;1.05;;;;;;;;;;4959956;28;20238;-46
2022/05/09 14:23:15;;;;;;;3.33;1.10;;;;;;;;;;4959098;28;20241;-50
2022/05/09 14:31:39;;;;;;;4.13;1.00;;;;;;;;;;4995280;28;20632;-44
2022/05/09 14:34:21;;;;;;;2.55;0.88;;;;;;;;;;5017913;28;20609;-43
2022/05/09 14:36:49;;;;;;;2.13;0.93;;;;;;;;;;5036467;28;20562;-43
2022/05/09 14:39:30;;;;;;;3.65;0.93;;;;;;;;;;5035334;28;20237;-43
2022/05/09 14:42:24;;;;;;;3.55;0.90;;;;;;;;;;5036456;28;20227;-44
2022/05/09 14:45:33;;;;;;;4.95;1.10;;;;;;;;;;5015425;28;20233;-42
2022/05/09 14:48:12;;;;;;;1.77;0.95;;;;;;;;;;5031089;28;20229;-43
2022/05/09 14:50:40;;;;;;;1.70;0.90;;;;;;;;;;5015731;28;20233;-43
2022/05/09 14:53:10;;;;;;;3.45;1.17;;;;;;;;;;5015956;28;20225;-43
2022/05/09 14:59:01;;;;;;;1.35;0.93;;;;;;;;;;5035275;28;20232;-45
2022/05/09 15:01:29;;;;;;;2.30;1.00;;;;;;;;;;5035836;28;20636;-43
2022/05/09 15:03:57;;;;;;;4.50;1.20;;;;;;;;;;5035809;28;20221;-44
2022/05/09 15:06:27;;;;;;;3.70;1.10;;;;;;;;;;5035583;28;20697;-43
2022/05/09 15:08:54;;;;;;;1.73;1.00;;;;;;;;;;5035729;28;20679;-45
2022/05/09 15:11:27;;;;;;;3.42;1.10;;;;;;;;;;5035299;28;20287;-42
2022/05/09 15:14:00;;;;;;;2.20;1.02;;;;;;;;;;5035559;28;20308;-44
2022/05/09 15:16:30;;;;;;;7.68;1.08;;;;;;;;;;5035405;28;20233;-43
2022/05/09 15:18:58;;;;;;;4.45;0.90;;;;;;;;;;5035442;28;20282;-43
2022/05/09 15:21:25;;;;;;;5.05;1.20;;;;;;;;;;5035065;28;20260;-44
2022/05/09 15:23:54;;;;;;;3.13;0.93;;;;;;;;;;5035548;28;20225;-45
2022/05/09 15:26:27;;;;;;;6.53;1.10;;;;;;;;;;5035208;28;20671;-47
2022/05/09 15:28:54;;;;;;;7.18;1.40;;;;;;;;;;5034696;28;20239;-45
2022/05/09 15:31:22;;;;;;;3.20;1.30;;;;;;;;;;5034960;28;20580;-44
2022/05/09 15:33:53;;;;;;;2.25;0.88;;;;;;;;;;5035339;28;20229;-44
2022/05/09 15:36:20;;;;;;;2.50;1.02;;;;;;;;;;5034605;28;20319;-43
2022/05/09 15:38:47;;;;;;;2.72;1.00;;;;;;;;;;5035405;28;20224;-43
2022/05/09 15:41:19;;;;;;;1.95;0.88;;;;;;;;;;5034415;28;20232;-45
2022/05/09 15:43:49;;;;;;;2.42;1.20;;;;;;;;;;5035133;28;20675;-45
2022/05/09 15:46:19;;;;;;;1.98;0.95;;;;;;;;;;5033640;28;20680;-43